sensor_id;sensor_type;location;lat;lon;timestamp;pressure;altitude;pressure_sealevel;temperature;humidity
70468;BME280;57934;51.532;7.684;2023-12-20T00:02:08;100155.22;;;6.62;nan
70468;BME280;57934;51.532;7.684;2023-12-20T00:04:34;100160.66;;;6.60;nan
70468;BME280;57934;51.532;7.684;2023-12-20T00:07:01;100160.47;;;6.62;nan
70468;BME280;57934;51.532;7.684;2023-12-20T00:09:27;100163.75;;;6.64;nan
70468;BME280;57934;51.532;7.684;2023-12-20T00:11:53;100163.22;;;6.68;nan
70468;BME280;57934;51.532;7.684;2023-12-20T00:14:19;100162.06;;;6.71;nan
70468;BME280;57934;51.532;7.684;2023-12-20T00:16:46;100166.31;;;6.72;nan
70468;BME280;57934;51.532;7.684;2023-12-20T00:19:12;100160.25;;;6.72;nan
70468;BME280;57934;51.532;7.684;2023-12-20T00:21:38;100161.13;;;6.64;nan
70468;BME280;57934;51.532;7.684;2023-12-20T00:24:04;100157.31;;;6.66;nan
70468;BME280;57934;51.532;7.684;2023-12-20T00:26:30;100159.00;;;6.59;nan
70468;BME280;57934;51.532;7.684;2023-12-20T00:28:56;100152.66;;;6.45;nan
70468;BME280;57934;51.532;7.684;2023-12-20T00:31:22;100147.41;;;6.54;nan
70468;BME280;57934;51.532;7.684;2023-12-20T00:33:48;100160.22;;;6.40;nan
70468;BME280;57934;51.532;7.684;2023-12-20T00:36:20;100169.06;;;6.39;nan
70468;BME280;57934;51.532;7.684;2023-12-20T00:38:47;100173.97;;;6.34;nan
70468;BME280;57934;51.532;7.684;2023-12-20T00:41:13;100174.84;;;6.27;nan
70468;BME280;57934;51.532;7.684;2023-12-20T00:43:39;100170.75;;;6.24;nan
70468;BME280;57934;51.532;7.684;2023-12-20T00:46:05;100173.03;;;6.27;nan
70468;BME280;57934;51.532;7.684;2023-12-20T00:48:32;100173.31;;;6.40;nan
70468;BME280;57934;51.532;7.684;2023-12-20T00:50:58;100178.84;;;6.45;nan
70468;BME280;57934;51.532;7.684;2023-12-20T00:53:24;100183.13;;;6.38;nan
70468;BME280;57934;51.532;7.684;2023-12-20T00:55:50;100171.00;;;6.45;nan
70468;BME280;57934;51.532;7.684;2023-12-20T00:58:16;100173.19;;;6.34;nan
70468;BME280;57934;51.532;7.684;2023-12-20T01:00:43;100178.09;;;6.37;nan
70468;BME280;57934;51.532;7.684;2023-12-20T01:03:09;100192.97;;;6.28;nan
70468;BME280;57934;51.532;7.684;2023-12-20T01:05:35;100187.75;;;6.36;nan
70468;BME280;57934;51.532;7.684;2023-12-20T01:08:01;100200.72;;;6.21;nan
70468;BME280;57934;51.532;7.684;2023-12-20T01:10:28;100196.75;;;6.34;nan
70468;BME280;57934;51.532;7.684;2023-12-20T01:12:55;100199.88;;;6.21;nan
70468;BME280;57934;51.532;7.684;2023-12-20T01:15:21;100187.25;;;6.25;nan
70468;BME280;57934;51.532;7.684;2023-12-20T01:17:47;100206.28;;;6.18;nan
70468;BME280;57934;51.532;7.684;2023-12-20T01:20:13;100198.88;;;6.30;nan
70468;BME280;57934;51.532;7.684;2023-12-20T01:22:39;100201.53;;;6.06;nan
70468;BME280;57934;51.532;7.684;2023-12-20T01:25:06;100201.50;;;6.30;nan
70468;BME280;57934;51.532;7.684;2023-12-20T01:27:32;100209.38;;;6.22;nan
70468;BME280;57934;51.532;7.684;2023-12-20T01:29:58;100216.25;;;6.15;nan
70468;BME280;57934;51.532;7.684;2023-12-20T01:32:24;100210.69;;;6.10;nan
70468;BME280;57934;51.532;7.684;2023-12-20T01:34:50;100219.06;;;6.05;nan
70468;BME280;57934;51.532;7.684;2023-12-20T01:37:17;100212.97;;;5.88;nan
70468;BME280;57934;51.532;7.684;2023-12-20T01:39:43;100222.81;;;6.11;nan
70468;BME280;57934;51.532;7.684;2023-12-20T01:42:09;100224.31;;;5.97;nan
70468;BME280;57934;51.532;7.684;2023-12-20T01:44:35;100224.13;;;5.98;nan
70468;BME280;57934;51.532;7.684;2023-12-20T01:47:01;100230.03;;;6.01;nan
70468;BME280;57934;51.532;7.684;2023-12-20T01:49:27;100231.16;;;5.90;nan
70468;BME280;57934;51.532;7.684;2023-12-20T01:51:54;100221.31;;;5.92;nan
70468;BME280;57934;51.532;7.684;2023-12-20T01:54:20;100219.06;;;5.97;nan
70468;BME280;57934;51.532;7.684;2023-12-20T01:56:47;100222.97;;;5.93;nan
70468;BME280;57934;51.532;7.684;2023-12-20T01:59:14;100225.44;;;5.94;nan
70468;BME280;57934;51.532;7.684;2023-12-20T02:01:40;100213.31;;;5.77;nan
70468;BME280;57934;51.532;7.684;2023-12-20T02:04:06;100216.75;;;5.78;nan
70468;BME280;57934;51.532;7.684;2023-12-20T02:06:33;100217.09;;;5.83;nan
70468;BME280;57934;51.532;7.684;2023-12-20T02:09:00;100230.31;;;5.81;nan
70468;BME280;57934;51.532;7.684;2023-12-20T02:11:27;100236.19;;;5.75;nan
70468;BME280;57934;51.532;7.684;2023-12-20T02:13:54;100230.97;;;5.83;nan
70468;BME280;57934;51.532;7.684;2023-12-20T02:16:21;100218.38;;;5.79;nan
70468;BME280;57934;51.532;7.684;2023-12-20T02:18:47;100223.28;;;5.65;nan
70468;BME280;57934;51.532;7.684;2023-12-20T02:21:14;100225.56;;;5.60;nan
70468;BME280;57934;51.532;7.684;2023-12-20T02:23:40;100207.09;;;5.62;nan
70468;BME280;57934;51.532;7.684;2023-12-20T02:26:07;100197.78;;;5.59;nan
70468;BME280;57934;51.532;7.684;2023-12-20T02:28:33;100203.66;;;5.69;nan
70468;BME280;57934;51.532;7.684;2023-12-20T02:31:00;100214.47;;;5.66;nan
70468;BME280;57934;51.532;7.684;2023-12-20T02:33:26;100208.72;;;5.71;nan
70468;BME280;57934;51.532;7.684;2023-12-20T02:35:52;100202.00;;;5.68;nan
70468;BME280;57934;51.532;7.684;2023-12-20T02:38:18;100218.22;;;5.64;nan
70468;BME280;57934;51.532;7.684;2023-12-20T02:40:44;100207.75;;;5.72;nan
70468;BME280;57934;51.532;7.684;2023-12-20T02:43:10;100209.72;;;5.78;nan
70468;BME280;57934;51.532;7.684;2023-12-20T02:45:36;100207.75;;;5.64;nan
70468;BME280;57934;51.532;7.684;2023-12-20T02:48:02;100211.34;;;5.71;nan
70468;BME280;57934;51.532;7.684;2023-12-20T02:50:29;100210.69;;;5.85;nan
70468;BME280;57934;51.532;7.684;2023-12-20T02:52:54;100214.94;;;5.78;nan
70468;BME280;57934;51.532;7.684;2023-12-20T02:55:20;100203.50;;;5.79;nan
70468;BME280;57934;51.532;7.684;2023-12-20T02:57:46;100197.78;;;5.67;nan
70468;BME280;57934;51.532;7.684;2023-12-20T03:00:13;100201.69;;;5.71;nan
70468;BME280;57934;51.532;7.684;2023-12-20T03:02:39;100210.56;;;5.95;nan
70468;BME280;57934;51.532;7.684;2023-12-20T03:05:06;100211.16;;;5.89;nan
70468;BME280;57934;51.532;7.684;2023-12-20T03:07:32;100208.91;;;5.78;nan
70468;BME280;57934;51.532;7.684;2023-12-20T03:09:58;100193.38;;;5.92;nan
70468;BME280;57934;51.532;7.684;2023-12-20T03:12:24;100195.47;;;5.89;nan
70468;BME280;57934;51.532;7.684;2023-12-20T03:14:50;100209.88;;;5.85;nan
70468;BME280;57934;51.532;7.684;2023-12-20T03:17:16;100206.75;;;5.89;nan
70468;BME280;57934;51.532;7.684;2023-12-20T03:19:42;100201.72;;;5.96;nan
70468;BME280;57934;51.532;7.684;2023-12-20T03:22:08;100202.03;;;5.93;nan
70468;BME280;57934;51.532;7.684;2023-12-20T03:24:34;100201.72;;;5.96;nan
70468;BME280;57934;51.532;7.684;2023-12-20T03:27:00;100199.88;;;5.88;nan
70468;BME280;57934;51.532;7.684;2023-12-20T03:29:26;100197.28;;;5.88;nan
70468;BME280;57934;51.532;7.684;2023-12-20T03:31:52;100206.63;;;5.83;nan
70468;BME280;57934;51.532;7.684;2023-12-20T03:34:18;100206.13;;;5.87;nan
70468;BME280;57934;51.532;7.684;2023-12-20T03:36:44;100206.44;;;5.84;nan
70468;BME280;57934;51.532;7.684;2023-12-20T03:39:10;100204.63;;;5.85;nan
70468;BME280;57934;51.532;7.684;2023-12-20T03:41:36;100210.56;;;5.95;nan
70468;BME280;57934;51.532;7.684;2023-12-20T03:44:02;100213.97;;;5.87;nan
70468;BME280;57934;51.532;7.684;2023-12-20T03:46:28;100207.91;;;5.87;nan
70468;BME280;57934;51.532;7.684;2023-12-20T03:48:54;100208.91;;;5.78;nan
70468;BME280;57934;51.532;7.684;2023-12-20T03:51:20;100214.63;;;5.73;nan
70468;BME280;57934;51.532;7.684;2023-12-20T03:53:46;100213.81;;;5.72;nan
70468;BME280;57934;51.532;7.684;2023-12-20T03:56:12;100203.66;;;5.78;nan
70468;BME280;57934;51.532;7.684;2023-12-20T03:58:38;100205.13;;;5.72;nan
70468;BME280;57934;51.532;7.684;2023-12-20T04:01:09;100207.59;;;5.65;nan
70468;BME280;57934;51.532;7.684;2023-12-20T04:03:36;100203.50;;;5.63;nan
70468;BME280;57934;51.532;7.684;2023-12-20T04:06:02;100196.28;;;5.65;nan
70468;BME280;57934;51.532;7.684;2023-12-20T04:08:28;100210.50;;;5.54;nan
70468;BME280;57934;51.532;7.684;2023-12-20T04:10:54;100210.84;;;5.59;nan
70468;BME280;57934;51.532;7.684;2023-12-20T04:13:20;100202.34;;;5.49;nan
70468;BME280;57934;51.532;7.684;2023-12-20T04:15:46;100196.63;;;5.45;nan
70468;BME280;57934;51.532;7.684;2023-12-20T04:18:12;100193.53;;;5.42;nan
70468;BME280;57934;51.532;7.684;2023-12-20T04:20:38;100199.06;;;5.39;nan
70468;BME280;57934;51.532;7.684;2023-12-20T04:23:04;100198.75;;;5.50;nan
70468;BME280;57934;51.532;7.684;2023-12-20T04:25:30;100197.75;;;5.43;nan
70468;BME280;57934;51.532;7.684;2023-12-20T04:27:56;100198.91;;;5.48;nan
70468;BME280;57934;51.532;7.684;2023-12-20T04:30:22;100206.59;;;5.50;nan
70468;BME280;57934;51.532;7.684;2023-12-20T04:32:48;100193.50;;;5.50;nan
70468;BME280;57934;51.532;7.684;2023-12-20T04:35:14;100191.41;;;5.54;nan
70468;BME280;57934;51.532;7.684;2023-12-20T04:37:40;100177.00;;;5.58;nan
70468;BME280;57934;51.532;7.684;2023-12-20T04:40:07;100186.81;;;5.56;nan
70468;BME280;57934;51.532;7.684;2023-12-20T04:42:34;100194.69;;;5.56;nan
70468;BME280;57934;51.532;7.684;2023-12-20T04:45:00;100193.69;;;5.57;nan
70468;BME280;57934;51.532;7.684;2023-12-20T04:47:26;100191.41;;;5.62;nan
70468;BME280;57934;51.532;7.684;2023-12-20T04:49:52;100195.00;;;5.69;nan
70468;BME280;57934;51.532;7.684;2023-12-20T04:52:18;100191.06;;;5.57;nan
70468;BME280;57934;51.532;7.684;2023-12-20T04:54:44;100200.06;;;5.54;nan
70468;BME280;57934;51.532;7.684;2023-12-20T04:57:10;100194.66;;;5.47;nan
70468;BME280;57934;51.532;7.684;2023-12-20T04:59:36;100186.50;;;5.59;nan
70468;BME280;57934;51.532;7.684;2023-12-20T05:02:02;100201.22;;;5.60;nan
70468;BME280;57934;51.532;7.684;2023-12-20T05:04:28;100184.22;;;5.56;nan
70468;BME280;57934;51.532;7.684;2023-12-20T05:06:54;100186.97;;;5.46;nan
70468;BME280;57934;51.532;7.684;2023-12-20T05:09:20;100195.66;;;5.55;nan
70468;BME280;57934;51.532;7.684;2023-12-20T05:11:46;100196.97;;;5.59;nan
70468;BME280;57934;51.532;7.684;2023-12-20T05:14:12;100197.28;;;5.56;nan
70468;BME280;57934;51.532;7.684;2023-12-20T05:16:39;100202.53;;;5.56;nan
70468;BME280;57934;51.532;7.684;2023-12-20T05:19:05;100199.72;;;5.57;nan
70468;BME280;57934;51.532;7.684;2023-12-20T05:21:32;100209.22;;;5.58;nan
70468;BME280;57934;51.532;7.684;2023-12-20T05:23:59;100209.69;;;5.54;nan
70468;BME280;57934;51.532;7.684;2023-12-20T05:26:25;100204.78;;;5.50;nan
70468;BME280;57934;51.532;7.684;2023-12-20T05:28:52;100205.78;;;5.58;nan
70468;BME280;57934;51.532;7.684;2023-12-20T05:31:18;100206.13;;;5.55;nan
70468;BME280;57934;51.532;7.684;2023-12-20T05:33:44;100201.22;;;5.60;nan
70468;BME280;57934;51.532;7.684;2023-12-20T05:36:10;100202.84;;;5.61;nan
70468;BME280;57934;51.532;7.684;2023-12-20T05:38:39;100202.34;;;5.49;nan
70468;BME280;57934;51.532;7.684;2023-12-20T05:41:05;100197.44;;;5.54;nan
70468;BME280;57934;51.532;7.684;2023-12-20T05:43:31;100195.00;;;5.53;nan
70468;BME280;57934;51.532;7.684;2023-12-20T05:45:57;100196.13;;;5.42;nan
70468;BME280;57934;51.532;7.684;2023-12-20T05:48:23;100189.91;;;5.43;nan
70468;BME280;57934;51.532;7.684;2023-12-20T05:50:49;100204.28;;;5.39;nan
70468;BME280;57934;51.532;7.684;2023-12-20T05:53:15;100201.50;;;5.40;nan
70468;BME280;57934;51.532;7.684;2023-12-20T05:55:41;100194.66;;;5.39;nan
70468;BME280;57934;51.532;7.684;2023-12-20T05:58:07;100186.66;;;5.41;nan
70468;BME280;57934;51.532;7.684;2023-12-20T06:00:33;100192.69;;;5.41;nan
70468;BME280;57934;51.532;7.684;2023-12-20T06:02:59;100205.78;;;5.41;nan
70468;BME280;57934;51.532;7.684;2023-12-20T06:05:25;100200.38;;;5.43;nan
70468;BME280;57934;51.532;7.684;2023-12-20T06:07:51;100199.53;;;5.26;nan
70468;BME280;57934;51.532;7.684;2023-12-20T06:10:18;100200.03;;;5.30;nan
70468;BME280;57934;51.532;7.684;2023-12-20T06:12:44;100194.78;;;5.30;nan
70468;BME280;57934;51.532;7.684;2023-12-20T06:15:10;100199.69;;;5.33;nan
70468;BME280;57934;51.532;7.684;2023-12-20T06:17:36;100196.91;;;5.26;nan
70468;BME280;57934;51.532;7.684;2023-12-20T06:20:03;100192.53;;;5.35;nan
70468;BME280;57934;51.532;7.684;2023-12-20T06:22:34;100185.00;;;5.40;nan
70468;BME280;57934;51.532;7.684;2023-12-20T06:25:00;100190.72;;;5.43;nan
70468;BME280;57934;51.532;7.684;2023-12-20T06:27:26;100199.38;;;5.36;nan
70468;BME280;57934;51.532;7.684;2023-12-20T06:29:52;100197.25;;;5.47;nan
70468;BME280;57934;51.532;7.684;2023-12-20T06:32:18;100206.59;;;5.50;nan
70468;BME280;57934;51.532;7.684;2023-12-20T06:34:44;100203.66;;;5.53;nan
70468;BME280;57934;51.532;7.684;2023-12-20T06:37:10;100201.34;;;5.50;nan
70468;BME280;57934;51.532;7.684;2023-12-20T06:39:36;100189.09;;;5.42;nan
70468;BME280;57934;51.532;7.684;2023-12-20T06:42:03;100196.94;;;5.50;nan
70468;BME280;57934;51.532;7.684;2023-12-20T06:44:29;100184.69;;;5.59;nan
70468;BME280;57934;51.532;7.684;2023-12-20T06:46:55;100190.41;;;5.46;nan
70468;BME280;57934;51.532;7.684;2023-12-20T06:49:21;100181.94;;;5.44;nan
70468;BME280;57934;51.532;7.684;2023-12-20T06:51:47;100191.06;;;5.57;nan
70468;BME280;57934;51.532;7.684;2023-12-20T06:54:13;100187.31;;;5.59;nan
70468;BME280;57934;51.532;7.684;2023-12-20T06:56:39;100186.47;;;5.50;nan
70468;BME280;57934;51.532;7.684;2023-12-20T06:59:05;100182.72;;;5.61;nan
70468;BME280;57934;51.532;7.684;2023-12-20T07:01:32;100185.34;;;5.53;nan
70468;BME280;57934;51.532;7.684;2023-12-20T07:03:58;100186.50;;;5.67;nan
70468;BME280;57934;51.532;7.684;2023-12-20T07:06:24;100190.09;;;5.58;nan
70468;BME280;57934;51.532;7.684;2023-12-20T07:08:52;100189.75;;;5.61;nan
70468;BME280;57934;51.532;7.684;2023-12-20T07:11:19;100195.97;;;5.60;nan
70468;BME280;57934;51.532;7.684;2023-12-20T07:13:45;100191.88;;;5.57;nan
70468;BME280;57934;51.532;7.684;2023-12-20T07:16:11;100201.06;;;5.69;nan
70468;BME280;57934;51.532;7.684;2023-12-20T07:18:37;100204.81;;;5.59;nan
70468;BME280;57934;51.532;7.684;2023-12-20T07:21:03;100199.41;;;5.60;nan
70468;BME280;57934;51.532;7.684;2023-12-20T07:23:29;100189.94;;;5.51;nan
70468;BME280;57934;51.532;7.684;2023-12-20T07:25:55;100197.13;;;5.73;nan
70468;BME280;57934;51.532;7.684;2023-12-20T07:28:22;100208.56;;;5.64;nan
70468;BME280;57934;51.532;7.684;2023-12-20T07:30:48;100208.88;;;5.61;nan
70468;BME280;57934;51.532;7.684;2023-12-20T07:33:14;100209.06;;;5.60;nan
70468;BME280;57934;51.532;7.684;2023-12-20T07:35:40;100193.19;;;5.53;nan
70468;BME280;57934;51.532;7.684;2023-12-20T07:38:06;100198.91;;;5.48;nan
70468;BME280;57934;51.532;7.684;2023-12-20T07:40:32;100201.38;;;5.58;nan
70468;BME280;57934;51.532;7.684;2023-12-20T07:42:58;100199.25;;;5.62;nan
70468;BME280;57934;51.532;7.684;2023-12-20T07:45:24;100208.38;;;5.58;nan
70468;BME280;57934;51.532;7.684;2023-12-20T07:47:52;100207.25;;;5.68;nan
70468;BME280;57934;51.532;7.684;2023-12-20T07:50:19;100213.47;;;5.67;nan
70468;BME280;57934;51.532;7.684;2023-12-20T07:52:45;100210.03;;;5.59;nan
70468;BME280;57934;51.532;7.684;2023-12-20T07:55:11;100212.47;;;5.60;nan
70468;BME280;57934;51.532;7.684;2023-12-20T07:57:37;100202.34;;;5.57;nan
70468;BME280;57934;51.532;7.684;2023-12-20T08:00:04;100210.53;;;5.62;nan
70468;BME280;57934;51.532;7.684;2023-12-20T08:02:31;100211.66;;;5.60;nan
70468;BME280;57934;51.532;7.684;2023-12-20T08:04:57;100204.81;;;5.59;nan
70468;BME280;57934;51.532;7.684;2023-12-20T08:07:24;100203.47;;;5.46;nan
70468;BME280;57934;51.532;7.684;2023-12-20T08:09:50;100201.03;;;5.45;nan
70468;BME280;57934;51.532;7.684;2023-12-20T08:12:18;100200.91;;;5.55;nan
70468;BME280;57934;51.532;7.684;2023-12-20T08:14:45;100199.09;;;5.55;nan
70468;BME280;57934;51.532;7.684;2023-12-20T08:17:10;100187.31;;;5.59;nan
70468;BME280;57934;51.532;7.684;2023-12-20T08:19:38;100190.25;;;5.56;nan
70468;BME280;57934;51.532;7.684;2023-12-20T08:22:04;100193.53;;;5.66;nan
70468;BME280;57934;51.532;7.684;2023-12-20T08:24:33;100191.41;;;5.70;nan
70468;BME280;57934;51.532;7.684;2023-12-20T08:26:59;100192.22;;;5.70;nan
70468;BME280;57934;51.532;7.684;2023-12-20T08:29:26;100191.41;;;5.78;nan
70468;BME280;57934;51.532;7.684;2023-12-20T08:31:53;100187.16;;;5.77;nan
70468;BME280;57934;51.532;7.684;2023-12-20T08:34:21;100187.97;;;5.78;nan
70468;BME280;57934;51.532;7.684;2023-12-20T08:36:47;100189.91;;;5.75;nan
70468;BME280;57934;51.532;7.684;2023-12-20T08:39:14;100190.91;;;5.83;nan
70468;BME280;57934;51.532;7.684;2023-12-20T08:41:40;100184.53;;;5.77;nan
70468;BME280;57934;51.532;7.684;2023-12-20T08:44:07;100192.06;;;5.80;nan
70468;BME280;57934;51.532;7.684;2023-12-20T08:46:33;100199.72;;;5.82;nan
70468;BME280;57934;51.532;7.684;2023-12-20T08:48:59;100193.19;;;5.86;nan
70468;BME280;57934;51.532;7.684;2023-12-20T08:51:26;100194.53;;;5.98;nan
70468;BME280;57934;51.532;7.684;2023-12-20T08:53:54;100186.97;;;6.03;nan
70468;BME280;57934;51.532;7.684;2023-12-20T08:56:20;100193.34;;;5.84;nan
70468;BME280;57934;51.532;7.684;2023-12-20T08:58:47;100192.41;;;5.93;nan
70468;BME280;57934;51.532;7.684;2023-12-20T09:01:14;100186.50;;;6.00;nan
70468;BME280;57934;51.532;7.684;2023-12-20T09:03:40;100196.81;;;6.01;nan
70468;BME280;57934;51.532;7.684;2023-12-20T09:06:06;100183.56;;;6.03;nan
70468;BME280;57934;51.532;7.684;2023-12-20T09:08:34;100188.78;;;6.03;nan
70468;BME280;57934;51.532;7.684;2023-12-20T09:11:00;100181.94;;;5.93;nan
70468;BME280;57934;51.532;7.684;2023-12-20T09:13:26;100185.69;;;5.99;nan
70468;BME280;57934;51.532;7.684;2023-12-20T09:15:57;100185.69;;;6.07;nan
70468;BME280;57934;51.532;7.684;2023-12-20T09:18:24;100194.19;;;6.01;nan
70468;BME280;57934;51.532;7.684;2023-12-20T09:20:50;100182.06;;;6.00;nan
70468;BME280;57934;51.532;7.684;2023-12-20T09:23:18;100188.47;;;5.97;nan
70468;BME280;57934;51.532;7.684;2023-12-20T09:25:44;100167.69;;;5.96;nan
70468;BME280;57934;51.532;7.684;2023-12-20T09:28:16;100169.81;;;6.09;nan
70468;BME280;57934;51.532;7.684;2023-12-20T09:30:42;100165.06;;;6.04;nan
70468;BME280;57934;51.532;7.684;2023-12-20T09:33:16;100166.19;;;6.10;nan
70468;BME280;57934;51.532;7.684;2023-12-20T09:35:42;100160.44;;;6.22;nan
70468;BME280;57934;51.532;7.684;2023-12-20T09:38:09;100153.91;;;6.18;nan
70468;BME280;57934;51.532;7.684;2023-12-20T09:40:36;100148.16;;;6.23;nan
70468;BME280;57934;51.532;7.684;2023-12-20T09:43:11;100160.28;;;6.16;nan
70468;BME280;57934;51.532;7.684;2023-12-20T09:45:39;100159.97;;;6.19;nan
70468;BME280;57934;51.532;7.684;2023-12-20T09:48:07;100161.28;;;6.15;nan
70468;BME280;57934;51.532;7.684;2023-12-20T09:50:33;100155.53;;;6.19;nan
70468;BME280;57934;51.532;7.684;2023-12-20T09:53:00;100143.78;;;6.15;nan
70468;BME280;57934;51.532;7.684;2023-12-20T09:55:27;100145.88;;;6.20;nan
70468;BME280;57934;51.532;7.684;2023-12-20T09:57:54;100144.56;;;6.24;nan
70468;BME280;57934;51.532;7.684;2023-12-20T10:00:20;100149.41;;;6.43;nan
70468;BME280;57934;51.532;7.684;2023-12-20T10:02:57;100147.16;;;6.32;nan
70468;BME280;57934;51.532;7.684;2023-12-20T10:05:30;100152.56;;;6.39;nan
70468;BME280;57934;51.532;7.684;2023-12-20T10:07:59;100149.22;;;6.45;nan
70468;BME280;57934;51.532;7.684;2023-12-20T10:10:26;100154.06;;;6.64;nan
70468;BME280;57934;51.532;7.684;2023-12-20T10:13:10;100158.13;;;6.75;nan
70468;BME280;57934;51.532;7.684;2023-12-20T10:15:37;100153.03;;;6.74;nan
70468;BME280;57934;51.532;7.684;2023-12-20T10:18:04;100151.06;;;6.76;nan
70468;BME280;57934;51.532;7.684;2023-12-20T10:20:30;100143.59;;;6.64;nan
70468;BME280;57934;51.532;7.684;2023-12-20T10:22:58;100136.84;;;6.70;nan
70468;BME280;57934;51.532;7.684;2023-12-20T10:25:25;100144.59;;;6.63;nan
70468;BME280;57934;51.532;7.684;2023-12-20T10:28:15;100131.44;;;6.72;nan
70468;BME280;57934;51.532;7.684;2023-12-20T10:30:45;100126.34;;;6.70;nan
70468;BME280;57934;51.532;7.684;2023-12-20T10:33:13;100126.16;;;6.80;nan
70468;BME280;57934;51.532;7.684;2023-12-20T10:35:39;100118.56;;;6.62;nan
70468;BME280;57934;51.532;7.684;2023-12-20T10:38:07;100116.94;;;6.61;nan
70468;BME280;57934;51.532;7.684;2023-12-20T10:40:36;100119.69;;;6.67;nan
70468;BME280;57934;51.532;7.684;2023-12-20T10:43:04;100115.78;;;6.55;nan
70468;BME280;57934;51.532;7.684;2023-12-20T10:45:31;100109.69;;;6.63;nan
70468;BME280;57934;51.532;7.684;2023-12-20T10:47:58;100118.34;;;6.72;nan
70468;BME280;57934;51.532;7.684;2023-12-20T10:50:28;100123.13;;;6.68;nan
70468;BME280;57934;51.532;7.684;2023-12-20T10:52:57;100112.97;;;6.65;nan
70468;BME280;57934;51.532;7.684;2023-12-20T10:55:26;100110.53;;;6.63;nan
70468;BME280;57934;51.532;7.684;2023-12-20T10:58:01;100129.16;;;6.68;nan
70468;BME280;57934;51.532;7.684;2023-12-20T11:00:29;100117.88;;;6.68;nan
70468;BME280;57934;51.532;7.684;2023-12-20T11:03:00;100112.28;;;6.71;nan
70468;BME280;57934;51.532;7.684;2023-12-20T11:05:49;100110.81;;;6.68;nan
70468;BME280;57934;51.532;7.684;2023-12-20T11:08:32;100110.97;;;6.75;nan
70468;BME280;57934;51.532;7.684;2023-12-20T11:11:11;100115.97;;;6.54;nan
70468;BME280;57934;51.532;7.684;2023-12-20T11:14:00;100115.19;;;6.45;nan
70468;BME280;57934;51.532;7.684;2023-12-20T11:16:27;100125.03;;;6.43;nan
70468;BME280;57934;51.532;7.684;2023-12-20T11:18:53;100120.44;;;6.45;nan
70468;BME280;57934;51.532;7.684;2023-12-20T11:21:20;100108.50;;;6.42;nan
70468;BME280;57934;51.532;7.684;2023-12-20T11:23:46;100105.50;;;6.54;nan
70468;BME280;57934;51.532;7.684;2023-12-20T11:26:15;100106.09;;;6.64;nan
70468;BME280;57934;51.532;7.684;2023-12-20T11:28:42;100100.41;;;6.60;nan
70468;BME280;57934;51.532;7.684;2023-12-20T11:31:08;100110.53;;;6.63;nan
70468;BME280;57934;51.532;7.684;2023-12-20T11:33:37;100115.53;;;6.73;nan
70468;BME280;57934;51.532;7.684;2023-12-20T11:36:13;100099.94;;;6.80;nan
70468;BME280;57934;51.532;7.684;2023-12-20T11:38:57;100096.78;;;6.84;nan
70468;BME280;57934;51.532;7.684;2023-12-20T11:41:24;100086.31;;;6.84;nan
70468;BME280;57934;51.532;7.684;2023-12-20T11:43:54;100087.28;;;6.91;nan
70468;BME280;57934;51.532;7.684;2023-12-20T11:46:20;100091.81;;;6.98;nan
70468;BME280;57934;51.532;7.684;2023-12-20T11:48:47;100091.00;;;6.97;nan
70468;BME280;57934;51.532;7.684;2023-12-20T11:51:14;100096.16;;;7.05;nan
70468;BME280;57934;51.532;7.684;2023-12-20T11:53:40;100091.69;;;7.14;nan
70468;BME280;57934;51.532;7.684;2023-12-20T11:56:08;100100.22;;;7.16;nan
70468;BME280;57934;51.532;7.684;2023-12-20T11:58:35;100101.66;;;7.18;nan
70468;BME280;57934;51.532;7.684;2023-12-20T12:01:02;100070.25;;;7.10;nan
70468;BME280;57934;51.532;7.684;2023-12-20T12:03:28;100083.94;;;6.98;nan
70468;BME280;57934;51.532;7.684;2023-12-20T12:05:54;100087.63;;;6.88;nan
70468;BME280;57934;51.532;7.684;2023-12-20T12:08:21;100090.94;;;6.82;nan
70468;BME280;57934;51.532;7.684;2023-12-20T12:10:47;100077.16;;;6.80;nan
70468;BME280;57934;51.532;7.684;2023-12-20T12:13:14;100080.78;;;6.79;nan
70468;BME280;57934;51.532;7.684;2023-12-20T12:15:40;100080.72;;;6.64;nan
70468;BME280;57934;51.532;7.684;2023-12-20T12:18:08;100058.31;;;6.62;nan
70468;BME280;57934;51.532;7.684;2023-12-20T12:20:34;100071.59;;;6.60;nan
70468;BME280;57934;51.532;7.684;2023-12-20T12:23:04;100062.94;;;6.52;nan
70468;BME280;57934;51.532;7.684;2023-12-20T12:25:32;100059.69;;;6.50;nan
70468;BME280;57934;51.532;7.684;2023-12-20T12:27:58;100059.97;;;6.55;nan
70468;BME280;57934;51.532;7.684;2023-12-20T12:30:25;100056.69;;;6.53;nan
70468;BME280;57934;51.532;7.684;2023-12-20T12:32:52;100041.16;;;6.51;nan
70468;BME280;57934;51.532;7.684;2023-12-20T12:35:19;100050.66;;;6.52;nan
70468;BME280;57934;51.532;7.684;2023-12-20T12:37:46;100061.38;;;6.42;nan
70468;BME280;57934;51.532;7.684;2023-12-20T12:40:14;100051.56;;;6.36;nan
70468;BME280;57934;51.532;7.684;2023-12-20T12:42:42;100060.16;;;6.22;nan
70468;BME280;57934;51.532;7.684;2023-12-20T12:45:09;100063.06;;;6.27;nan
70468;BME280;57934;51.532;7.684;2023-12-20T12:47:37;100048.88;;;6.21;nan
70468;BME280;57934;51.532;7.684;2023-12-20T12:50:04;100048.50;;;6.25;nan
70468;BME280;57934;51.532;7.684;2023-12-20T12:52:31;100047.06;;;6.14;nan
70468;BME280;57934;51.532;7.684;2023-12-20T12:54:57;100047.06;;;6.14;nan
70468;BME280;57934;51.532;7.684;2023-12-20T12:57:24;100039.38;;;6.20;nan
70468;BME280;57934;51.532;7.684;2023-12-20T12:59:51;100037.19;;;6.32;nan
70468;BME280;57934;51.532;7.684;2023-12-20T13:02:17;100034.41;;;6.34;nan
70468;BME280;57934;51.532;7.684;2023-12-20T13:04:44;100024.91;;;6.33;nan
70468;BME280;57934;51.532;7.684;2023-12-20T13:07:11;100016.59;;;6.29;nan
70468;BME280;57934;51.532;7.684;2023-12-20T13:09:39;100037.53;;;6.29;nan
70468;BME280;57934;51.532;7.684;2023-12-20T13:12:06;100034.25;;;6.35;nan
70468;BME280;57934;51.532;7.684;2023-12-20T13:14:34;100020.16;;;6.36;nan
70468;BME280;57934;51.532;7.684;2023-12-20T13:17:01;100016.53;;;6.37;nan
70468;BME280;57934;51.532;7.684;2023-12-20T13:19:27;100006.84;;;6.46;nan
70468;BME280;57934;51.532;7.684;2023-12-20T13:21:53;100006.25;;;6.59;nan